createdAt,value
2023-02-19T00:01:33.637Z,11.05
2023-02-19T00:04:04.163Z,10.70
2023-02-19T00:06:32.907Z,13.70
2023-02-19T00:08:59.946Z,11.05
2023-02-19T00:11:33.831Z,10.25
2023-02-19T00:14:02.478Z,10.05
2023-02-19T00:16:32.228Z,10.25
2023-02-19T00:18:59.966Z,11.85
2023-02-19T00:21:28.147Z,10.45
2023-02-19T00:24:00.677Z,9.85
2023-02-19T00:26:28.308Z,9.25
2023-02-19T00:28:56.197Z,12.25
2023-02-19T00:31:24.300Z,11.90
2023-02-19T00:36:19.947Z,11.80
2023-02-19T00:38:47.671Z,12.47
2023-02-19T00:41:21.594Z,12.63
2023-02-19T00:43:54.108Z,11.23
2023-02-19T00:46:30.362Z,11.60
2023-02-19T00:48:58.081Z,11.57
2023-02-19T00:51:27.275Z,12.50
2023-02-19T00:53:54.387Z,11.45
2023-02-19T00:56:21.614Z,11.02
2023-02-19T00:58:49.507Z,11.27
2023-02-19T01:01:17.045Z,9.23
2023-02-19T01:03:45.432Z,8.93
2023-02-19T01:06:14.853Z,8.48
2023-02-19T01:08:42.000Z,9.70
2023-02-19T01:11:09.969Z,8.80
2023-02-19T01:16:06.205Z,6.88
2023-02-19T01:18:33.880Z,7.53
2023-02-19T01:21:04.589Z,8.02
2023-02-19T01:23:31.467Z,8.35
2023-02-19T01:25:58.229Z,7.68
2023-02-19T01:28:25.030Z,10.23
2023-02-19T01:30:51.769Z,7.25
2023-02-19T01:33:18.812Z,7.15
2023-02-19T01:35:45.728Z,5.45
2023-02-19T01:38:12.820Z,5.80
2023-02-19T01:40:39.648Z,9.25
2023-02-19T01:43:12.169Z,6.03
2023-02-19T01:45:42.705Z,6.47
2023-02-19T01:48:15.610Z,4.53
2023-02-19T01:50:49.179Z,7.07
2023-02-19T01:53:21.325Z,7.13
2023-02-19T01:55:51.130Z,7.07
2023-02-19T01:58:18.684Z,5.43
2023-02-19T02:00:45.511Z,4.03
2023-02-19T02:03:12.895Z,6.97
2023-02-19T02:06:02.740Z,6.33
2023-02-19T02:08:50.118Z,7.50
2023-02-19T02:11:21.381Z,6.57
2023-02-19T02:13:48.794Z,7.22
2023-02-19T02:16:25.114Z,8.77
2023-02-19T02:19:23.980Z,7.72
2023-02-19T02:22:12.621Z,7.43
2023-02-19T02:25:06.031Z,5.18
2023-02-19T02:27:54.424Z,4.38
2023-02-19T02:30:37.612Z,4.63
2023-02-19T02:33:26.395Z,7.72
2023-02-19T02:36:03.593Z,7.75
2023-02-19T02:38:34.972Z,6.28
2023-02-19T02:41:02.464Z,5.03
2023-02-19T02:43:30.352Z,6.80
2023-02-19T02:45:57.964Z,6.65
2023-02-19T02:49:03.105Z,5.18
2023-02-19T02:51:47.221Z,6.68
2023-02-19T02:54:41.374Z,6.78
2023-02-19T02:57:14.975Z,8.77
2023-02-19T02:59:49.412Z,6.85
2023-02-19T03:02:24.682Z,9.45
2023-02-19T03:05:22.381Z,10.50
2023-02-19T03:07:55.816Z,9.23
2023-02-19T03:10:33.859Z,9.57
2023-02-19T03:16:19.067Z,12.30
2023-02-19T03:19:08.668Z,25.98
2023-02-19T03:21:38.233Z,10.27
2023-02-19T03:24:29.652Z,15.13
2023-02-19T03:26:59.443Z,16.35
2023-02-19T03:29:33.010Z,13.07
2023-02-19T03:32:18.830Z,13.45
2023-02-19T03:34:57.211Z,14.20
2023-02-19T03:37:47.606Z,15.75
2023-02-19T03:40:16.384Z,11.77
2023-02-19T03:43:09.889Z,14.30
2023-02-19T03:45:48.473Z,12.70
2023-02-19T03:48:31.969Z,12.02
2023-02-19T03:51:17.064Z,13.60
2023-02-19T03:54:09.959Z,9.70
2023-02-19T03:57:06.589Z,14.30
2023-02-19T03:59:51.300Z,10.10
2023-02-19T04:02:32.957Z,12.98
2023-02-19T04:05:08.401Z,15.27
2023-02-19T04:07:41.077Z,11.98
2023-02-19T04:10:10.131Z,11.00
2023-02-19T04:12:50.006Z,8.52
2023-02-19T04:15:23.254Z,10.13
2023-02-19T04:18:21.816Z,13.63
2023-02-19T04:20:48.926Z,15.45
2023-02-19T04:23:20.622Z,14.02
2023-02-19T04:25:50.650Z,9.32
2023-02-19T04:28:18.651Z,8.13
2023-02-19T04:30:45.913Z,16.08
2023-02-19T04:33:13.200Z,8.40
2023-02-19T04:35:39.956Z,11.73
2023-02-19T04:38:08.546Z,13.20
2023-02-19T04:40:35.365Z,12.25
2023-02-19T04:43:02.287Z,9.88
2023-02-19T04:45:29.068Z,8.93
2023-02-19T04:47:58.616Z,13.13
2023-02-19T04:50:26.012Z,9.02
2023-02-19T04:52:52.774Z,14.02
2023-02-19T04:55:19.701Z,10.45
2023-02-19T04:57:46.512Z,10.77
2023-02-19T05:00:13.757Z,13.00
2023-02-19T05:02:40.729Z,12.37
2023-02-19T05:05:07.988Z,10.13
2023-02-19T05:07:34.826Z,10.73
2023-02-19T05:10:01.622Z,10.65
2023-02-19T05:12:30.935Z,5.60
2023-02-19T05:14:57.775Z,14.63
2023-02-19T05:17:24.618Z,9.48
2023-02-19T05:19:51.473Z,11.02
2023-02-19T05:22:18.336Z,10.90
2023-02-19T05:24:45.218Z,9.85
2023-02-19T05:27:12.054Z,10.73
2023-02-19T05:29:38.830Z,8.20
2023-02-19T05:32:05.591Z,9.48
2023-02-19T05:34:32.545Z,15.63
2023-02-19T05:36:59.293Z,11.05
2023-02-19T05:39:26.032Z,13.00
2023-02-19T05:41:52.773Z,13.98
2023-02-19T05:44:19.522Z,10.82
2023-02-19T05:46:46.307Z,11.48
2023-02-19T05:49:13.311Z,11.40
2023-02-19T05:51:40.126Z,11.70
2023-02-19T05:54:07.113Z,11.60
2023-02-19T05:56:39.485Z,13.65
2023-02-19T05:59:18.581Z,11.45
2023-02-19T06:01:47.266Z,11.85
2023-02-19T06:04:15.416Z,11.85
2023-02-19T06:06:42.592Z,13.18
2023-02-19T06:09:10.479Z,12.32
2023-02-19T06:11:37.637Z,15.73
2023-02-19T06:14:05.303Z,14.13
2023-02-19T06:16:33.964Z,9.07
2023-02-19T06:19:04.742Z,10.05
2023-02-19T06:21:31.812Z,10.50
2023-02-19T06:23:58.783Z,18.05
2023-02-19T06:26:26.322Z,13.88
2023-02-19T06:28:54.136Z,14.65
2023-02-19T06:31:22.776Z,12.48
2023-02-19T06:33:50.657Z,11.23
2023-02-19T06:38:46.293Z,10.27
2023-02-19T06:41:13.947Z,14.68
2023-02-19T06:43:41.347Z,10.88
2023-02-19T06:46:08.273Z,14.35
2023-02-19T06:48:35.623Z,7.97
2023-02-19T06:51:02.580Z,13.43
2023-02-19T06:53:29.568Z,11.68
2023-02-19T06:55:58.469Z,10.30
2023-02-19T06:58:25.793Z,12.23
2023-02-19T07:00:53.119Z,15.88
2023-02-19T07:03:20.558Z,12.05
2023-02-19T07:05:47.754Z,12.55
2023-02-19T07:08:14.590Z,10.50
2023-02-19T07:10:41.459Z,15.32
2023-02-19T07:13:08.230Z,11.52
2023-02-19T07:15:35.087Z,13.55
2023-02-19T07:18:01.964Z,12.45
2023-02-19T07:20:28.798Z,11.40
2023-02-19T07:22:57.496Z,16.38
2023-02-19T07:25:24.332Z,13.70
2023-02-19T07:27:51.051Z,10.45
2023-02-19T07:30:18.004Z,21.42
2023-02-19T07:32:45.532Z,11.27
2023-02-19T07:35:12.380Z,12.32
2023-02-19T07:37:41.040Z,10.65
2023-02-19T07:40:08.457Z,15.73
2023-02-19T07:42:35.233Z,10.07
2023-02-19T07:45:02.205Z,12.90
2023-02-19T07:47:29.651Z,13.07
2023-02-19T07:49:56.666Z,11.50
2023-02-19T07:52:24.034Z,12.15
2023-02-19T07:54:50.891Z,12.32
2023-02-19T07:57:17.615Z,8.13
2023-02-19T07:59:44.494Z,8.70
2023-02-19T08:02:37.719Z,10.90
2023-02-19T08:05:06.246Z,10.32
2023-02-19T08:07:34.613Z,8.35
2023-02-19T08:10:20.851Z,10.02
2023-02-19T08:13:15.177Z,11.25
2023-02-19T08:15:42.125Z,15.88
2023-02-19T08:18:10.242Z,12.45
2023-02-19T08:23:04.303Z,11.18
2023-02-19T08:25:31.394Z,12.37
2023-02-19T08:28:00.185Z,9.63
2023-02-19T08:30:28.817Z,13.07
2023-02-19T08:32:56.089Z,12.55
2023-02-19T08:35:23.141Z,10.90
2023-02-19T08:37:49.948Z,11.35
2023-02-19T08:40:17.501Z,6.45
2023-02-19T08:42:45.885Z,6.53
2023-02-19T08:45:12.831Z,8.25
2023-02-19T08:47:39.966Z,8.80
2023-02-19T08:50:07.813Z,4.83
2023-02-19T08:52:35.291Z,12.15
2023-02-19T08:55:04.201Z,9.32
2023-02-19T08:57:31.264Z,5.97
2023-02-19T08:59:58.416Z,5.05
2023-02-19T09:02:25.641Z,7.55
2023-02-19T09:04:52.517Z,10.02
2023-02-19T09:07:19.360Z,7.60
2023-02-19T09:09:46.229Z,5.35
2023-02-19T09:12:17.787Z,6.40
2023-02-19T09:14:46.654Z,7.90
2023-02-19T09:17:13.458Z,4.67
2023-02-19T09:19:40.385Z,9.98
2023-02-19T09:22:07.160Z,5.97
2023-02-19T09:24:34.210Z,8.18
2023-02-19T09:27:00.988Z,6.75
2023-02-19T09:29:29.474Z,5.93
2023-02-19T09:31:58.125Z,10.70
2023-02-19T09:34:26.056Z,9.80
2023-02-19T09:36:53.223Z,9.88
2023-02-19T09:39:20.927Z,9.67
2023-02-19T09:42:17.580Z,6.65
2023-02-19T09:44:50.285Z,11.48
2023-02-19T09:47:23.116Z,6.00
2023-02-19T09:49:54.090Z,7.22
2023-02-19T09:52:35.654Z,9.35
2023-02-19T09:55:16.291Z,5.43
2023-02-19T09:57:44.502Z,4.25
2023-02-19T10:02:38.968Z,11.93
2023-02-19T10:05:17.049Z,4.40
2023-02-19T10:07:46.985Z,5.20
2023-02-19T10:10:13.777Z,8.20
2023-02-19T10:12:47.613Z,5.40
2023-02-19T10:15:22.165Z,6.03
2023-02-19T10:17:48.948Z,6.53
2023-02-19T10:20:19.070Z,3.33
2023-02-19T10:22:46.580Z,6.80
2023-02-19T10:25:16.392Z,9.20
2023-02-19T10:27:44.610Z,4.78
2023-02-19T10:30:23.587Z,3.28
2023-02-19T10:33:09.157Z,4.45
2023-02-19T10:35:52.278Z,4.55
2023-02-19T10:38:23.626Z,5.63
2023-02-19T10:40:59.781Z,4.45
2023-02-19T10:43:33.859Z,5.65
2023-02-19T10:46:08.477Z,5.88
2023-02-19T10:48:40.802Z,6.97
2023-02-19T10:51:11.210Z,3.92
2023-02-19T10:53:44.339Z,4.07
2023-02-19T10:56:24.511Z,4.75
2023-02-19T10:58:51.600Z,5.32
2023-02-19T11:01:27.032Z,4.90
2023-02-19T11:04:17.879Z,5.88
2023-02-19T11:06:45.634Z,5.30
2023-02-19T11:09:34.808Z,5.85
2023-02-19T11:12:04.192Z,5.82
2023-02-19T11:14:33.615Z,5.25
2023-02-19T11:17:04.951Z,3.47
2023-02-19T11:19:34.626Z,4.88
2023-02-19T11:22:02.407Z,6.47
2023-02-19T11:24:37.206Z,5.18
2023-02-19T11:27:07.018Z,4.38
2023-02-19T11:29:37.004Z,5.05
2023-02-19T11:32:30.747Z,3.38
2023-02-19T11:35:22.519Z,3.72
2023-02-19T11:38:00.576Z,3.83
2023-02-19T11:43:16.623Z,5.18
2023-02-19T11:46:31.701Z,6.05
2023-02-19T11:49:07.624Z,5.07
2023-02-19T11:51:37.555Z,3.35
2023-02-19T11:54:22.934Z,2.08
2023-02-19T11:57:18.524Z,4.50
2023-02-19T11:59:52.845Z,4.07
2023-02-19T12:02:47.129Z,7.60
2023-02-19T12:05:41.245Z,4.13
2023-02-19T12:08:29.049Z,4.53
2023-02-19T12:11:10.017Z,4.20
2023-02-19T12:13:55.754Z,4.43
2023-02-19T12:16:36.759Z,3.25
2023-02-19T12:19:24.854Z,6.75
2023-02-19T12:22:00.504Z,5.90
2023-02-19T12:24:56.881Z,3.08
2023-02-19T12:27:35.759Z,4.78
2023-02-19T12:30:33.651Z,4.00
2023-02-19T12:33:18.403Z,2.55
2023-02-19T12:36:11.511Z,4.00
2023-02-19T12:38:57.957Z,3.78
2023-02-19T12:41:43.207Z,4.90
2023-02-19T12:44:24.855Z,5.57
2023-02-19T12:46:56.568Z,3.22
2023-02-19T12:49:35.676Z,2.22
2023-02-19T12:52:11.543Z,4.65
2023-02-19T12:54:46.429Z,5.35
2023-02-19T12:57:19.897Z,2.55
2023-02-19T12:59:49.405Z,4.18
2023-02-19T13:02:22.508Z,2.20
2023-02-19T13:05:24.203Z,6.03
2023-02-19T13:08:19.527Z,2.42
2023-02-19T13:11:01.315Z,5.55
2023-02-19T13:13:38.620Z,4.20
2023-02-19T13:16:19.110Z,2.97
2023-02-19T13:18:55.983Z,3.60
2023-02-19T13:21:45.092Z,2.00
2023-02-19T13:24:20.777Z,5.07
2023-02-19T13:26:59.179Z,4.55
2023-02-19T13:29:47.048Z,4.28
2023-02-19T13:32:26.221Z,4.43
2023-02-19T13:35:15.023Z,5.15
2023-02-19T13:37:42.659Z,3.35
2023-02-19T13:40:36.317Z,5.50
2023-02-19T13:43:13.840Z,5.93
2023-02-19T13:45:44.669Z,4.80
2023-02-19T13:48:23.773Z,4.53
2023-02-19T13:51:11.500Z,5.57
2023-02-19T13:56:44.881Z,5.55
2023-02-19T13:59:25.356Z,2.85
2023-02-19T14:02:00.765Z,2.15
2023-02-19T14:04:52.305Z,1.90
2023-02-19T14:07:19.514Z,2.90
2023-02-19T14:09:47.098Z,2.72
2023-02-19T14:12:15.864Z,2.03
2023-02-19T14:14:51.686Z,2.75
2023-02-19T14:17:43.091Z,3.88
2023-02-19T14:20:09.880Z,3.15
2023-02-19T14:22:46.034Z,2.67
2023-02-19T14:25:29.226Z,2.15
2023-02-19T14:28:14.764Z,1.67
2023-02-19T14:30:53.075Z,3.50
2023-02-19T14:33:25.600Z,3.47
2023-02-19T14:36:01.932Z,2.63
2023-02-19T14:38:35.117Z,3.53
2023-02-19T14:41:02.601Z,2.72
2023-02-19T14:43:30.254Z,3.13
2023-02-19T14:46:04.479Z,1.85
2023-02-19T14:48:41.687Z,4.20
2023-02-19T14:51:23.828Z,3.87
2023-02-19T14:53:52.017Z,0.93
2023-02-19T14:59:25.877Z,5.13
2023-02-19T15:01:59.133Z,2.53
2023-02-19T15:04:30.009Z,3.17
2023-02-19T15:07:00.113Z,3.42
2023-02-19T15:09:39.747Z,2.67
2023-02-19T15:12:07.227Z,3.25
2023-02-19T15:14:34.728Z,3.45
2023-02-19T15:17:05.095Z,3.03
2023-02-19T15:19:39.526Z,8.75
2023-02-19T15:22:07.531Z,3.08
2023-02-19T15:24:34.404Z,2.65
2023-02-19T15:27:01.397Z,3.60
2023-02-19T15:29:28.683Z,3.40
2023-02-19T15:31:58.424Z,3.90
2023-02-19T15:34:28.168Z,2.78
2023-02-19T15:37:04.500Z,3.65
2023-02-19T15:39:39.753Z,3.40
2023-02-19T15:42:09.335Z,3.28
2023-02-19T15:44:42.208Z,2.70
2023-02-19T15:47:33.306Z,2.33
2023-02-19T15:50:04.833Z,2.95
2023-02-19T15:52:59.671Z,2.13
2023-02-19T15:55:47.645Z,3.85
2023-02-19T16:00:56.020Z,2.33
2023-02-19T16:03:25.391Z,4.03
2023-02-19T16:06:05.785Z,3.65
2023-02-19T16:08:35.289Z,2.65
2023-02-19T16:11:05.042Z,2.92
2023-02-19T16:13:34.062Z,4.18
2023-02-19T16:16:03.554Z,3.15
2023-02-19T16:18:31.039Z,4.70
2023-02-19T16:20:58.334Z,4.82
2023-02-19T16:23:25.493Z,6.00
2023-02-19T16:26:01.556Z,3.28
2023-02-19T16:28:38.362Z,1.33
2023-02-19T16:31:12.171Z,1.67
2023-02-19T16:33:49.736Z,4.47
2023-02-19T16:36:20.943Z,3.28
2023-02-19T16:39:03.104Z,2.17
2023-02-19T16:41:30.121Z,4.03
2023-02-19T16:43:57.198Z,5.22
2023-02-19T16:46:24.386Z,5.15
2023-02-19T16:48:51.562Z,3.53
2023-02-19T16:51:25.632Z,3.67
2023-02-19T16:53:52.914Z,3.20
2023-02-19T16:56:22.966Z,2.53
2023-02-19T16:58:50.487Z,3.42
2023-02-19T17:01:17.824Z,3.17
2023-02-19T17:03:46.938Z,4.07
2023-02-19T17:06:14.295Z,3.63
2023-02-19T17:08:43.074Z,7.43
2023-02-19T17:11:15.901Z,4.18
2023-02-19T17:13:45.809Z,4.20
2023-02-19T17:16:19.226Z,5.25
2023-02-19T17:18:46.217Z,4.43
2023-02-19T17:21:27.782Z,17.00
2023-02-19T17:23:56.483Z,11.38
2023-02-19T17:26:28.773Z,5.30
2023-02-19T17:29:00.153Z,6.13
2023-02-19T17:31:27.460Z,4.15
2023-02-19T17:33:54.531Z,4.93
2023-02-19T17:36:22.884Z,5.33
2023-02-19T17:41:16.852Z,1.70
2023-02-19T17:43:43.859Z,4.63
2023-02-19T17:46:18.888Z,4.85
2023-02-19T17:48:46.104Z,4.15
2023-02-19T17:51:13.363Z,3.90
2023-02-19T17:53:41.249Z,3.63
2023-02-19T17:56:08.692Z,3.83
2023-02-19T17:58:35.522Z,2.30
2023-02-19T18:01:02.419Z,10.52
2023-02-19T18:03:29.940Z,4.82
2023-02-19T18:05:56.785Z,3.78
2023-02-19T18:08:23.700Z,3.60
2023-02-19T18:10:50.591Z,3.40
2023-02-19T18:13:17.472Z,5.63
2023-02-19T18:15:45.185Z,3.47
2023-02-19T18:18:12.289Z,5.93
2023-02-19T18:20:39.163Z,3.53
2023-02-19T18:23:06.220Z,6.35
2023-02-19T18:25:33.073Z,3.17
2023-02-19T18:28:00.150Z,3.75
2023-02-19T18:30:28.664Z,3.28
2023-02-19T18:32:55.779Z,6.88
2023-02-19T18:35:22.688Z,5.43
2023-02-19T18:37:51.694Z,6.18
2023-02-19T18:40:25.211Z,3.20
2023-02-19T18:42:52.632Z,4.00
2023-02-19T18:45:19.581Z,6.90
2023-02-19T18:47:50.830Z,2.25
2023-02-19T18:50:19.714Z,3.97
2023-02-19T18:52:46.659Z,5.15
2023-02-19T18:55:13.907Z,5.10
2023-02-19T18:57:40.900Z,6.27
2023-02-19T19:00:08.545Z,4.03
2023-02-19T19:02:47.394Z,6.25
2023-02-19T19:05:23.245Z,4.50
2023-02-19T19:07:59.088Z,3.08
2023-02-19T19:10:26.825Z,3.65
2023-02-19T19:12:54.639Z,8.93
2023-02-19T19:15:22.591Z,20.17
2023-02-19T19:17:49.974Z,10.25
2023-02-19T19:20:19.163Z,4.10
2023-02-19T19:22:48.307Z,3.10
2023-02-19T19:25:15.314Z,6.45
2023-02-19T19:27:42.298Z,5.40
2023-02-19T19:30:09.996Z,6.18
2023-02-19T19:32:37.851Z,5.35
2023-02-19T19:35:05.383Z,7.13
2023-02-19T19:37:32.447Z,3.33
2023-02-19T19:39:59.594Z,3.13
2023-02-19T19:42:26.437Z,4.90
2023-02-19T19:44:53.400Z,5.50
2023-02-19T19:47:20.752Z,4.85
2023-02-19T19:49:47.664Z,5.15
2023-02-19T19:52:14.834Z,6.47
2023-02-19T19:54:43.078Z,2.72
2023-02-19T19:57:10.865Z,6.40
2023-02-19T19:59:39.381Z,4.15
2023-02-19T20:02:07.623Z,5.70
2023-02-19T20:04:34.838Z,8.65
2023-02-19T20:07:02.354Z,6.07
2023-02-19T20:09:29.384Z,6.88
2023-02-19T20:11:57.162Z,6.17
2023-02-19T20:14:25.757Z,6.38
2023-02-19T20:16:54.983Z,5.65
2023-02-19T20:19:22.218Z,14.05
2023-02-19T20:21:51.900Z,8.23
2023-02-19T20:24:24.798Z,6.93
2023-02-19T20:26:59.312Z,9.48
2023-02-19T20:29:28.890Z,11.32
2023-02-19T20:31:59.875Z,6.80
2023-02-19T20:34:27.230Z,6.63
2023-02-19T20:36:54.708Z,14.43
2023-02-19T20:39:22.286Z,10.10
2023-02-19T20:41:51.103Z,10.82
2023-02-19T20:44:19.232Z,9.35
2023-02-19T20:46:48.691Z,11.40
2023-02-19T20:49:17.318Z,13.93
2023-02-19T20:51:44.779Z,10.25
2023-02-19T20:54:11.667Z,6.63
2023-02-19T20:56:43.015Z,3.13
2023-02-19T20:59:09.844Z,4.13
2023-02-19T21:01:36.691Z,8.15
2023-02-19T21:04:03.858Z,7.90
2023-02-19T21:06:30.638Z,5.10
2023-02-19T21:08:57.621Z,6.63
2023-02-19T21:11:24.491Z,5.78
2023-02-19T21:13:51.375Z,10.18
2023-02-19T21:16:18.454Z,8.00
2023-02-19T21:18:45.253Z,6.17
2023-02-19T21:21:12.211Z,4.57
2023-02-19T21:23:39.062Z,7.57
2023-02-19T21:26:05.860Z,6.93
2023-02-19T21:28:32.634Z,8.35
2023-02-19T21:30:59.415Z,3.70
2023-02-19T21:33:26.314Z,7.15
2023-02-19T21:35:53.189Z,4.93
2023-02-19T21:38:20.049Z,4.18
2023-02-19T21:40:46.871Z,6.20
2023-02-19T21:43:13.609Z,9.45
2023-02-19T21:45:40.477Z,7.88
2023-02-19T21:48:08.661Z,4.85
2023-02-19T21:50:35.423Z,20.63
2023-02-19T21:53:02.310Z,12.70
2023-02-19T21:55:29.131Z,7.40
2023-02-19T21:57:55.865Z,5.65
2023-02-19T22:00:22.873Z,7.40
2023-02-19T22:02:49.877Z,6.63
2023-02-19T22:05:16.885Z,7.72
2023-02-19T22:07:43.737Z,6.45
2023-02-19T22:10:10.799Z,9.65
2023-02-19T22:12:37.713Z,13.00
2023-02-19T22:15:04.884Z,9.70
2023-02-19T22:17:31.652Z,5.17
2023-02-19T22:19:58.505Z,8.85
2023-02-19T22:22:26.677Z,7.47
2023-02-19T22:24:53.641Z,6.47
2023-02-19T22:27:20.513Z,8.07
2023-02-19T22:29:47.790Z,6.50
2023-02-19T22:32:14.717Z,9.23
2023-02-19T22:34:41.950Z,5.15
2023-02-19T22:37:09.795Z,12.17
2023-02-19T22:39:36.592Z,8.13
2023-02-19T22:42:03.400Z,9.13
2023-02-19T22:44:30.291Z,4.40
2023-02-19T22:46:57.217Z,8.65
2023-02-19T22:49:24.144Z,7.13
2023-02-19T22:51:56.391Z,6.18
2023-02-19T22:54:26.725Z,7.90
2023-02-19T22:56:54.526Z,8.07
2023-02-19T22:59:22.439Z,5.30
2023-02-19T23:01:50.083Z,6.35
2023-02-19T23:04:16.964Z,6.95
2023-02-19T23:06:47.622Z,11.10
2023-02-19T23:09:15.913Z,10.50
2023-02-19T23:11:42.723Z,5.78
2023-02-19T23:14:09.547Z,7.30
2023-02-19T23:16:36.660Z,11.15
2023-02-19T23:19:05.131Z,8.37
2023-02-19T23:21:32.758Z,9.27
2023-02-19T23:24:00.008Z,9.00
2023-02-19T23:26:27.009Z,7.75
2023-02-19T23:28:53.752Z,7.65
2023-02-19T23:31:20.554Z,8.35
2023-02-19T23:33:47.449Z,9.32
2023-02-19T23:36:15.096Z,8.23
2023-02-19T23:38:45.213Z,6.75
2023-02-19T23:41:13.892Z,6.35
2023-02-19T23:43:40.752Z,7.75
2023-02-19T23:46:07.709Z,8.80
2023-02-19T23:48:34.643Z,8.73
2023-02-19T23:51:01.452Z,9.80
2023-02-19T23:53:28.211Z,11.57
2023-02-19T23:55:55.256Z,10.10
2023-02-19T23:58:22.049Z,8.43
